createdAt,value
2022-12-15T00:03:08.051Z,28.50
2022-12-15T00:08:29.327Z,26.37
2022-12-15T00:13:50.810Z,29.20
2022-12-15T00:19:11.263Z,25.97
2022-12-15T00:24:31.908Z,25.90
2022-12-15T00:29:53.792Z,27.60
2022-12-15T00:35:13.982Z,27.00
2022-12-15T00:40:16.969Z,26.17
2022-12-15T00:45:21.232Z,25.50
2022-12-15T00:50:41.583Z,24.27
2022-12-15T00:56:01.921Z,24.47
2022-12-15T01:01:26.721Z,20.73
2022-12-15T01:06:47.281Z,21.87
2022-12-15T01:12:07.752Z,23.70
2022-12-15T01:17:29.900Z,22.57
2022-12-15T01:22:32.864Z,23.27
2022-12-15T01:27:36.087Z,24.90
2022-12-15T01:32:45.846Z,23.53
2022-12-15T01:37:50.277Z,21.07
2022-12-15T01:42:53.846Z,19.33
2022-12-15T01:48:01.760Z,21.63
2022-12-15T01:53:04.843Z,18.87
2022-12-15T01:58:10.307Z,23.60
2022-12-15T02:03:15.173Z,25.20
2022-12-15T02:08:18.277Z,23.07
2022-12-15T02:13:29.416Z,21.80
2022-12-15T02:18:42.553Z,22.63
2022-12-15T02:24:19.859Z,22.90
2022-12-15T02:29:54.602Z,20.50
2022-12-15T02:35:03.868Z,21.47
2022-12-15T02:40:11.863Z,20.07
2022-12-15T02:45:20.667Z,18.40
2022-12-15T02:50:43.287Z,19.33
2022-12-15T02:55:54.032Z,19.13
2022-12-15T03:01:02.461Z,17.77
2022-12-15T03:06:07.254Z,18.67
2022-12-15T03:11:10.242Z,20.40
2022-12-15T03:16:13.536Z,21.10
2022-12-15T03:21:17.848Z,20.63
2022-12-15T03:26:20.818Z,19.67
2022-12-15T03:31:23.828Z,23.73
2022-12-15T03:36:28.153Z,23.93
2022-12-15T03:41:31.055Z,19.67
2022-12-15T03:46:34.016Z,26.17
2022-12-15T03:51:38.324Z,21.63
2022-12-15T03:56:41.331Z,25.83
2022-12-15T04:01:48.349Z,21.90
2022-12-15T04:06:52.726Z,19.37
2022-12-15T04:11:55.644Z,18.23
2022-12-15T04:16:58.846Z,17.50
2022-12-15T04:22:04.652Z,16.07
2022-12-15T04:27:25.109Z,15.47
2022-12-15T04:32:45.619Z,17.30
2022-12-15T04:38:11.983Z,14.63
2022-12-15T04:43:32.564Z,14.37
2022-12-15T04:48:52.991Z,13.97
2022-12-15T04:54:14.622Z,14.00
2022-12-15T04:59:35.108Z,14.40
2022-12-15T05:04:55.322Z,14.47
2022-12-15T05:10:16.996Z,14.13
2022-12-15T05:15:37.524Z,13.63
2022-12-15T05:20:58.136Z,12.77
2022-12-15T05:26:19.871Z,12.67
2022-12-15T05:31:40.063Z,13.77
2022-12-15T05:36:43.018Z,13.20
2022-12-15T05:41:47.390Z,14.23
2022-12-15T05:46:50.419Z,13.37
2022-12-15T05:51:53.406Z,11.53
2022-12-15T05:56:57.642Z,17.70
2022-12-15T06:02:00.620Z,16.47
2022-12-15T06:07:03.599Z,21.20
2022-12-15T06:12:08.128Z,20.10
2022-12-15T06:17:11.064Z,23.57
2022-12-15T06:22:13.985Z,23.20
2022-12-15T06:27:18.250Z,19.17
2022-12-15T06:32:21.987Z,18.60
2022-12-15T06:37:24.903Z,19.47
2022-12-15T06:42:29.147Z,22.60
2022-12-15T06:47:32.007Z,20.20
2022-12-15T06:52:34.915Z,20.10
2022-12-15T06:57:39.833Z,24.20
2022-12-15T07:02:43.256Z,23.57
2022-12-15T07:07:53.362Z,21.73
2022-12-15T07:12:58.739Z,19.50
2022-12-15T07:18:01.881Z,21.30
2022-12-15T07:23:07.995Z,19.23
2022-12-15T07:28:12.531Z,19.13
2022-12-15T07:33:15.942Z,17.20
2022-12-15T07:38:18.862Z,14.30
2022-12-15T07:43:24.077Z,11.20
2022-12-15T07:48:27.447Z,13.67
2022-12-15T07:53:30.914Z,17.87
2022-12-15T07:58:35.627Z,22.27
2022-12-15T08:03:39.428Z,19.20
2022-12-15T08:08:44.649Z,18.57
2022-12-15T08:14:02.579Z,16.53
2022-12-15T08:19:06.787Z,16.90
2022-12-15T08:24:10.664Z,18.87
2022-12-15T08:29:49.518Z,24.93
2022-12-15T08:34:39.955Z,30.83
2022-12-15T08:39:42.953Z,36.37
2022-12-15T08:44:49.770Z,27.60
2022-12-15T08:49:54.077Z,32.63
2022-12-15T08:54:56.932Z,30.27
2022-12-15T09:00:01.397Z,19.70
2022-12-15T09:05:06.247Z,23.80
2022-12-15T09:10:09.840Z,23.10
2022-12-15T09:15:14.614Z,29.20
2022-12-15T09:20:18.194Z,21.67
2022-12-15T09:25:21.194Z,21.30
2022-12-15T09:30:25.711Z,18.70
2022-12-15T09:35:28.990Z,22.13
2022-12-15T09:40:33.409Z,17.03
2022-12-15T09:45:44.388Z,18.27
2022-12-15T09:50:49.567Z,17.77
2022-12-15T09:56:03.532Z,14.80
2022-12-15T10:01:19.520Z,16.13
2022-12-15T10:06:33.308Z,15.60
2022-12-15T10:11:50.551Z,15.97
2022-12-15T10:17:03.988Z,19.30
2022-12-15T10:22:11.525Z,17.53
2022-12-15T10:27:25.637Z,16.60
2022-12-15T10:32:42.632Z,16.30
2022-12-15T10:37:45.884Z,15.00
2022-12-15T10:42:51.548Z,14.87
2022-12-15T10:48:02.518Z,15.13
2022-12-15T10:53:10.076Z,13.93
2022-12-15T10:58:18.894Z,12.10
2022-12-15T11:03:26.239Z,13.37
2022-12-15T11:08:31.270Z,11.40
2022-12-15T11:19:08.046Z,13.27
2022-12-15T11:24:16.089Z,14.70
2022-12-15T11:29:34.778Z,14.80
2022-12-15T11:34:42.917Z,15.73
2022-12-15T11:40:02.192Z,14.07
2022-12-15T11:45:09.968Z,14.77
2022-12-15T11:50:30.510Z,13.20
2022-12-15T11:55:44.296Z,14.17
2022-12-15T12:00:55.936Z,17.43
2022-12-15T12:06:08.538Z,14.80
2022-12-15T12:11:15.684Z,14.73
2022-12-15T12:16:33.185Z,14.40
2022-12-15T12:21:41.720Z,13.20
2022-12-15T12:26:48.533Z,13.00
2022-12-15T12:32:05.190Z,12.20
2022-12-15T12:37:18.035Z,12.07
2022-12-15T12:42:27.297Z,11.73
2022-12-15T12:47:34.518Z,11.80
2022-12-15T12:52:39.161Z,12.53
2022-12-15T12:57:45.516Z,11.90
2022-12-15T13:03:10.124Z,13.30
2022-12-15T13:08:52.019Z,11.97
2022-12-15T13:13:56.652Z,11.03
2022-12-15T13:19:05.259Z,12.47
2022-12-15T13:24:23.083Z,13.43
2022-12-15T13:29:27.526Z,11.63
2022-12-15T13:34:36.875Z,14.67
2022-12-15T13:39:58.861Z,19.60
2022-12-15T13:45:29.941Z,10.90
2022-12-15T13:50:40.359Z,11.90
2022-12-15T13:55:56.793Z,11.40
2022-12-15T14:01:01.117Z,13.97
2022-12-15T14:06:04.096Z,12.47
2022-12-15T14:11:29.424Z,13.63
2022-12-15T14:16:35.242Z,11.37
2022-12-15T14:21:38.335Z,13.93
2022-12-15T14:26:42.688Z,12.07
2022-12-15T14:31:51.231Z,11.23
2022-12-15T14:36:57.150Z,11.47
2022-12-15T14:42:02.171Z,12.40
2022-12-15T14:47:09.427Z,10.93
2022-12-15T14:52:28.675Z,12.90
2022-12-15T14:57:42.449Z,10.20
2022-12-15T15:02:46.913Z,9.70
2022-12-15T15:03:13.684Z,12.20
2022-12-15T15:07:56.683Z,8.73
2022-12-15T15:13:00.127Z,9.83
2022-12-15T15:18:04.560Z,16.70
2022-12-15T15:23:17.704Z,10.73
2022-12-15T15:28:25.962Z,29.00
2022-12-15T15:33:30.283Z,17.80
2022-12-15T15:38:36.985Z,16.93
2022-12-15T15:43:39.998Z,14.20
2022-12-15T15:48:47.859Z,12.90
2022-12-15T15:53:50.872Z,11.00
2022-12-15T15:58:53.892Z,9.83
2022-12-15T16:03:58.370Z,11.57
2022-12-15T16:09:01.426Z,10.70
2022-12-15T16:14:04.739Z,12.13
2022-12-15T16:19:09.247Z,17.90
2022-12-15T16:24:17.049Z,20.73
2022-12-15T16:29:21.896Z,21.60
2022-12-15T16:34:26.247Z,20.70
2022-12-15T16:39:32.135Z,19.90
2022-12-15T16:44:35.038Z,21.63
2022-12-15T16:49:40.487Z,18.70
2022-12-15T16:54:46.291Z,20.53
2022-12-15T16:59:49.812Z,20.20
2022-12-15T17:04:55.234Z,23.43
2022-12-15T17:09:58.345Z,24.60
2022-12-15T17:15:02.429Z,27.43
2022-12-15T17:26:09.371Z,24.90
2022-12-15T17:30:59.453Z,24.00
2022-12-15T17:36:11.746Z,23.23
2022-12-15T17:41:42.304Z,22.67
2022-12-15T17:46:38.611Z,23.30
2022-12-15T17:51:43.906Z,26.57
2022-12-15T17:56:49.206Z,29.23
2022-12-15T18:01:52.221Z,26.10
2022-12-15T18:07:01.465Z,26.10
2022-12-15T18:12:11.961Z,28.17
2022-12-15T18:17:14.988Z,26.63
2022-12-15T18:27:29.632Z,34.50
2022-12-15T18:32:38.217Z,35.33
2022-12-15T18:37:41.255Z,40.20
2022-12-15T18:42:47.125Z,41.90
2022-12-15T18:47:50.828Z,30.90
2022-12-15T18:52:58.918Z,34.10
2022-12-15T18:58:03.286Z,40.23
2022-12-15T19:03:06.672Z,38.70
2022-12-15T19:08:14.030Z,41.50
2022-12-15T19:13:20.929Z,41.43
2022-12-15T19:18:42.539Z,45.60
2022-12-15T19:23:45.537Z,45.77
2022-12-15T19:28:49.776Z,44.93
2022-12-15T19:33:52.656Z,41.73
2022-12-15T19:38:56.600Z,41.47
2022-12-15T19:44:01.013Z,41.57
2022-12-15T19:49:03.962Z,43.50
2022-12-15T19:54:07.853Z,45.67
2022-12-15T19:59:20.421Z,40.60
2022-12-15T20:04:24.499Z,37.20
2022-12-15T20:09:27.628Z,41.43
2022-12-15T20:14:32.295Z,45.17
2022-12-15T20:19:35.231Z,48.40
2022-12-15T20:24:38.147Z,45.70
2022-12-15T20:29:42.420Z,40.30
2022-12-15T20:34:45.855Z,38.80
2022-12-15T20:39:53.930Z,40.80
2022-12-15T20:45:01.373Z,45.00
2022-12-15T20:50:04.751Z,46.50
2022-12-15T20:55:11.503Z,44.47
2022-12-15T21:00:18.000Z,35.90
2022-12-15T21:05:23.426Z,53.87
2022-12-15T21:10:28.250Z,40.00
2022-12-15T21:15:32.557Z,42.40
2022-12-15T21:20:35.485Z,37.97
2022-12-15T21:25:38.519Z,32.27
2022-12-15T21:30:43.105Z,36.93
2022-12-15T21:35:48.455Z,34.90
2022-12-15T21:40:57.673Z,36.00
2022-12-15T21:46:12.546Z,37.00
2022-12-15T21:51:16.923Z,36.00
2022-12-15T21:56:22.315Z,37.47
2022-12-15T22:01:30.351Z,32.43
2022-12-15T22:06:33.351Z,34.67
2022-12-15T22:11:36.258Z,29.80
2022-12-15T22:16:40.577Z,27.53
2022-12-15T22:21:43.521Z,28.10
2022-12-15T22:26:46.499Z,72.80
2022-12-15T22:31:51.882Z,53.53
2022-12-15T22:36:55.140Z,33.03
2022-12-15T22:41:58.513Z,34.13
2022-12-15T22:47:04.657Z,30.13
2022-12-15T22:52:16.491Z,35.07
2022-12-15T22:57:22.624Z,34.00
2022-12-15T23:02:27.318Z,33.33
2022-12-15T23:07:30.291Z,31.53
2022-12-15T23:12:33.163Z,31.13
2022-12-15T23:17:37.473Z,32.33
2022-12-15T23:22:40.383Z,33.13
2022-12-15T23:27:43.333Z,32.93
2022-12-15T23:32:47.632Z,34.07
2022-12-15T23:37:50.930Z,34.83
2022-12-15T23:42:53.839Z,29.90
2022-12-15T23:47:59.522Z,32.07
2022-12-15T23:53:02.684Z,30.27
2022-12-15T23:58:05.575Z,33.77
